Time;durP1;ratioP1;P1;durP2;ratioP2;P2;SDS_P1;SDS_P2;PMS_P1;PMS_P2;Temp;Humidity;BMP_temperature;BMP_pressure;BME280_temperature;BME280_humidity;BME280_pressure;Samples;Min_cycle;Max_cycle;Signal;HPM_P1;HPM_P2
2021/03/04 09:12:28;;;;;;;14.67;6.80;;;8.30;99.90;;;;;;4951691;29;20238;-72
2021/03/04 09:14:55;;;;;;;20.70;6.97;;;8.20;99.90;;;;;;4954043;29;20212;-70
2021/03/04 09:17:22;;;;;;;22.03;7.37;;;8.20;99.90;;;;;;4965227;28;20227;-73
2021/03/04 09:19:53;;;;;;;23.07;7.90;;;8.10;99.90;;;;;;4976846;28;20207;-70
2021/03/04 09:22:20;;;;;;;27.53;8.07;;;8.00;99.90;;;;;;4976138;28;20208;-73
2021/03/04 09:24:48;;;;;;;23.57;7.70;;;8.00;99.90;;;;;;4976399;28;20708;-72
2021/03/04 09:27:18;;;;;;;25.73;7.27;;;7.90;99.90;;;;;;4976503;28;20234;-73
2021/03/04 09:29:45;;;;;;;21.27;8.47;;;7.90;99.90;;;;;;4977268;28;20211;-75
2021/03/04 09:32:12;;;;;;;21.37;6.77;;;7.90;99.90;;;;;;4976794;28;20207;-74
2021/03/04 09:34:39;;;;;;;28.23;7.90;;;7.90;99.90;;;;;;4976410;28;20210;-72
2021/03/04 09:37:08;;;;;;;23.83;7.90;;;7.80;99.90;;;;;;4976507;28;20657;-72
2021/03/04 09:39:43;;;;;;;35.43;7.97;;;7.70;99.90;;;;;;4976712;28;20211;-72
2021/03/04 09:42:10;;;;;;;30.17;7.77;;;7.70;99.90;;;;;;4975822;28;20211;-72
2021/03/04 09:44:52;;;;;;;27.00;8.90;;;7.70;99.90;;;;;;4972926;28;20207;-72
2021/03/04 09:47:20;;;;;;;28.13;8.10;;;7.70;99.90;;;;;;4974311;28;20227;-72
2021/03/04 09:49:47;;;;;;;24.23;7.43;;;7.70;99.90;;;;;;4975105;28;20302;-73
2021/03/04 09:52:21;;;;;;;34.07;9.00;;;7.80;99.90;;;;;;4974664;28;20741;-71
2021/03/04 09:54:50;;;;;;;27.80;7.80;;;7.70;99.90;;;;;;4975296;28;20213;-71
2021/03/04 09:57:19;;;;;;;30.80;8.53;;;7.70;99.90;;;;;;4973527;28;20593;-72
2021/03/04 09:59:48;;;;;;;22.10;7.87;;;7.70;99.90;;;;;;4974783;28;20207;-74
2021/03/04 10:02:16;;;;;;;28.30;8.53;;;7.70;99.90;;;;;;4975082;28;20622;-70
2021/03/04 10:04:53;;;;;;;34.43;8.70;;;7.70;99.90;;;;;;4974993;28;20257;-71
2021/03/04 10:07:23;;;;;;;28.17;7.73;;;7.70;99.90;;;;;;4975216;28;20234;-71
2021/03/04 10:09:49;;;;;;;24.37;7.03;;;7.80;99.90;;;;;;4974724;28;20211;-70
2021/03/04 10:12:16;;;;;;;22.50;6.57;;;7.70;99.90;;;;;;4974586;28;20485;-73
2021/03/04 10:14:43;;;;;;;31.83;7.43;;;7.70;99.90;;;;;;4974725;28;20203;-75
2021/03/04 10:17:10;;;;;;;24.17;7.20;;;7.70;99.90;;;;;;4975120;28;20231;-70
2021/03/04 10:19:37;;;;;;;19.47;5.93;;;7.70;99.90;;;;;;4974827;28;20204;-72
2021/03/04 10:22:03;;;;;;;24.40;6.73;;;7.80;99.90;;;;;;4974973;28;20211;-73
2021/03/04 10:24:30;;;;;;;25.27;6.73;;;7.70;99.90;;;;;;4974639;28;20219;-72
2021/03/04 10:26:58;;;;;;;18.50;5.97;;;7.70;99.90;;;;;;4974158;28;20728;-73
2021/03/04 10:29:25;;;;;;;17.30;5.87;;;7.70;99.90;;;;;;4974134;28;20566;-71
2021/03/04 10:31:52;;;;;;;18.93;6.03;;;7.70;99.90;;;;;;4974725;28;20235;-73
2021/03/04 10:34:18;;;;;;;19.17;5.17;;;7.70;99.90;;;;;;4974636;28;20218;-73
2021/03/04 10:36:45;;;;;;;25.27;6.00;;;7.70;99.90;;;;;;4974108;28;20266;-73
2021/03/04 10:39:14;;;;;;;23.30;5.87;;;7.80;99.90;;;;;;4974246;28;20235;-73
2021/03/04 10:41:40;;;;;;;22.00;6.37;;;7.90;99.90;;;;;;4973887;28;20286;-81
2021/03/04 10:44:07;;;;;;;20.03;5.87;;;7.80;99.90;;;;;;4974560;28;20618;-69
2021/03/04 10:46:33;;;;;;;22.60;5.83;;;7.90;99.90;;;;;;4974253;28;20215;-71
2021/03/04 10:48:59;;;;;;;20.47;6.40;;;8.00;99.90;;;;;;4974512;28;20214;-75
2021/03/04 10:51:26;;;;;;;22.90;6.10;;;8.10;99.90;;;;;;4974170;28;20261;-69
2021/03/04 10:53:53;;;;;;;28.53;7.67;;;8.10;99.90;;;;;;4973801;28;20207;-71
2021/03/04 10:56:19;;;;;;;23.63;6.57;;;8.20;99.90;;;;;;4973358;28;20685;-70
2021/03/04 10:58:45;;;;;;;15.20;6.10;;;8.10;99.90;;;;;;4972861;28;20249;-69
2021/03/04 11:01:11;;;;;;;15.73;5.80;;;8.10;99.90;;;;;;4973464;28;20218;-70
2021/03/04 11:03:38;;;;;;;23.07;6.33;;;8.10;99.90;;;;;;4974903;28;20254;-72
2021/03/04 11:06:04;;;;;;;18.13;7.00;;;8.10;99.90;;;;;;4973582;28;20220;-75
2021/03/04 11:08:30;;;;;;;15.33;6.00;;;8.10;99.90;;;;;;4973015;28;20289;-71
2021/03/04 11:10:58;;;;;;;20.73;6.50;;;8.00;99.90;;;;;;4974424;28;20243;-78
2021/03/04 11:13:24;;;;;;;17.90;5.43;;;7.90;99.90;;;;;;4973621;28;20276;-72
2021/03/04 11:15:50;;;;;;;14.03;4.83;;;7.80;99.90;;;;;;4974264;28;20261;-73
2021/03/04 11:18:16;;;;;;;16.33;5.63;;;7.80;99.90;;;;;;4973726;28;20231;-72
2021/03/04 11:20:43;;;;;;;14.50;5.37;;;7.80;99.90;;;;;;4973257;28;20214;-70
2021/03/04 11:23:10;;;;;;;16.40;5.43;;;7.80;99.90;;;;;;4973969;28;20226;-76
2021/03/04 11:25:36;;;;;;;15.67;5.13;;;8.00;99.90;;;;;;4973946;28;20204;-71
2021/03/04 11:28:06;;;;;;;12.30;4.43;;;8.00;99.90;;;;;;4974022;28;20234;-70
2021/03/04 11:30:32;;;;;;;14.27;5.20;;;8.00;99.90;;;;;;4973542;28;20235;-71
2021/03/04 11:32:59;;;;;;;17.83;4.20;;;8.00;99.90;;;;;;4973769;28;20207;-70
2021/03/04 11:35:27;;;;;;;17.37;4.93;;;8.00;99.90;;;;;;4972940;28;20223;-70
2021/03/04 11:37:54;;;;;;;12.53;4.37;;;7.90;99.90;;;;;;4974499;28;20234;-70
2021/03/04 11:40:20;;;;;;;12.07;5.37;;;7.80;99.90;;;;;;4974671;28;20222;-70
2021/03/04 11:42:46;;;;;;;14.37;4.73;;;7.80;99.90;;;;;;4973058;28;20211;-72
2021/03/04 11:45:15;;;;;;;13.53;5.13;;;7.90;99.90;;;;;;4972349;28;20670;-72
2021/03/04 11:47:41;;;;;;;12.10;4.90;;;7.90;99.90;;;;;;4973952;28;20231;-73
2021/03/04 11:50:08;;;;;;;15.57;5.53;;;7.90;99.90;;;;;;4974281;28;20670;-75
2021/03/04 11:52:35;;;;;;;17.00;4.70;;;7.80;99.90;;;;;;4971486;28;20207;-69
2021/03/04 11:55:02;;;;;;;14.47;4.53;;;7.80;99.90;;;;;;4973106;28;20565;-74
2021/03/04 11:57:28;;;;;;;17.07;4.90;;;7.70;99.90;;;;;;4973329;28;20246;-73
2021/03/04 11:59:56;;;;;;;12.37;4.80;;;7.80;99.90;;;;;;4973198;28;20207;-71
2021/03/04 12:02:23;;;;;;;18.67;5.13;;;7.80;99.90;;;;;;4973011;28;20203;-71
2021/03/04 12:04:51;;;;;;;11.43;4.73;;;8.00;99.90;;;;;;4972886;28;20211;-70
2021/03/04 12:07:17;;;;;;;12.57;5.27;;;8.00;99.90;;;;;;4973449;28;20223;-70
2021/03/04 12:09:43;;;;;;;11.67;4.43;;;8.10;99.90;;;;;;4973938;28;20203;-72
2021/03/04 12:12:11;;;;;;;14.67;4.77;;;8.10;99.90;;;;;;4974324;28;20250;-72
2021/03/04 12:14:37;;;;;;;11.40;5.00;;;8.20;99.90;;;;;;4974298;28;20618;-72
2021/03/04 12:17:03;;;;;;;11.20;4.13;;;8.30;99.90;;;;;;4974243;28;20290;-72
2021/03/04 12:19:31;;;;;;;10.93;4.50;;;8.40;99.90;;;;;;4973464;28;20211;-71
2021/03/04 12:21:57;;;;;;;14.07;5.17;;;8.40;99.90;;;;;;4974171;28;20211;-72
2021/03/04 12:24:23;;;;;;;14.20;4.63;;;8.40;99.90;;;;;;4974060;28;20675;-71
2021/03/04 12:26:49;;;;;;;12.83;5.03;;;8.40;99.90;;;;;;4973882;28;20230;-72
2021/03/04 12:29:16;;;;;;;12.13;4.77;;;8.50;99.90;;;;;;4973901;28;20686;-71
2021/03/04 12:31:43;;;;;;;12.63;4.57;;;8.40;99.90;;;;;;4973789;28;20235;-71
2021/03/04 12:34:09;;;;;;;10.97;4.30;;;8.40;99.90;;;;;;4973912;28;20215;-71
2021/03/04 12:36:36;;;;;;;13.93;5.23;;;8.40;99.90;;;;;;4974004;28;20270;-72
2021/03/04 12:39:04;;;;;;;18.23;5.37;;;8.30;99.90;;;;;;4973815;28;20207;-71
2021/03/04 12:41:30;;;;;;;15.27;5.83;;;8.30;99.90;;;;;;4973954;28;20210;-72
2021/03/04 12:43:56;;;;;;;16.13;6.23;;;8.30;99.90;;;;;;4974216;28;20586;-72
2021/03/04 12:46:23;;;;;;;16.27;6.10;;;8.40;99.90;;;;;;4973907;28;20210;-72
2021/03/04 12:48:49;;;;;;;15.17;6.33;;;8.30;99.90;;;;;;4973813;28;20246;-72
2021/03/04 12:51:16;;;;;;;19.37;6.43;;;8.40;99.90;;;;;;4973928;28;20262;-70
2021/03/04 12:53:43;;;;;;;16.87;6.70;;;8.30;99.90;;;;;;4973954;28;20211;-70
2021/03/04 12:56:09;;;;;;;21.03;7.60;;;8.10;99.90;;;;;;4973760;28;20211;-71
2021/03/04 12:58:35;;;;;;;18.30;6.77;;;8.00;99.90;;;;;;4970860;28;20235;-72
2021/03/04 13:01:02;;;;;;;17.90;7.20;;;7.90;99.90;;;;;;4972718;28;20211;-70
2021/03/04 13:03:28;;;;;;;19.37;6.43;;;8.00;99.90;;;;;;4972654;28;20269;-71
2021/03/04 13:05:54;;;;;;;19.90;7.47;;;7.90;99.90;;;;;;4972799;28;20204;-75
2021/03/04 13:08:21;;;;;;;21.87;7.27;;;7.90;99.90;;;;;;4972431;28;20226;-70
2021/03/04 13:10:48;;;;;;;21.53;7.40;;;8.00;99.90;;;;;;4973016;28;20227;-70
2021/03/04 13:13:15;;;;;;;21.57;6.57;;;8.00;99.90;;;;;;4973469;28;20298;-69
2021/03/04 13:15:41;;;;;;;16.37;6.40;;;7.90;99.90;;;;;;4973550;28;20242;-71
2021/03/04 13:18:07;;;;;;;20.90;6.43;;;7.90;99.90;;;;;;4973183;28;20701;-71
2021/03/04 13:20:33;;;;;;;20.20;7.00;;;7.80;99.90;;;;;;4973647;28;20239;-71
2021/03/04 13:23:00;;;;;;;18.53;6.53;;;7.70;99.90;;;;;;4973554;28;20570;-71
2021/03/04 13:25:26;;;;;;;21.10;7.40;;;7.60;99.90;;;;;;4973680;28;20211;-71
2021/03/04 13:27:53;;;;;;;22.83;6.90;;;7.60;99.90;;;;;;4973507;28;20223;-72
2021/03/04 13:30:20;;;;;;;22.80;7.50;;;7.40;99.90;;;;;;4973690;28;20234;-70
2021/03/04 13:32:46;;;;;;;31.17;8.23;;;7.40;99.90;;;;;;4976875;28;20207;-76
2021/03/04 13:35:13;;;;;;;21.57;7.47;;;7.30;99.90;;;;;;4977375;28;20210;-71
2021/03/04 13:37:39;;;;;;;28.77;7.57;;;7.20;99.90;;;;;;4976831;28;20228;-69
2021/03/04 13:40:07;;;;;;;29.60;8.60;;;7.20;99.90;;;;;;4976981;28;20210;-70
2021/03/04 13:42:33;;;;;;;32.47;9.00;;;7.20;99.90;;;;;;4977000;28;20218;-73
2021/03/04 13:45:00;;;;;;;35.03;7.40;;;7.20;99.90;;;;;;4976717;28;20211;-70
2021/03/04 13:47:26;;;;;;;30.23;7.97;;;7.30;99.90;;;;;;4976528;28;20223;-69
2021/03/04 13:49:53;;;;;;;31.23;8.10;;;7.30;99.90;;;;;;4976799;28;20218;-69
2021/03/04 13:52:19;;;;;;;27.97;8.27;;;7.30;99.90;;;;;;4976676;28;20241;-69
2021/03/04 13:54:46;;;;;;;27.83;9.33;;;7.30;99.90;;;;;;4976583;28;20223;-72
2021/03/04 13:57:12;;;;;;;33.83;9.30;;;7.30;99.90;;;;;;4976263;28;20230;-70
2021/03/04 13:59:38;;;;;;;31.90;8.90;;;7.20;99.90;;;;;;4976336;28;20211;-69
2021/03/04 14:02:05;;;;;;;41.67;11.10;;;7.10;99.90;;;;;;4976405;28;20207;-71
2021/03/04 14:04:32;;;;;;;52.70;11.30;;;7.20;99.90;;;;;;4976529;28;20273;-71
2021/03/04 14:06:58;;;;;;;39.53;10.03;;;7.10;99.90;;;;;;4976235;28;20243;-71
2021/03/04 14:09:24;;;;;;;34.10;7.67;;;7.10;99.90;;;;;;4973572;28;20203;-71
2021/03/04 14:11:51;;;;;;;39.03;10.27;;;7.00;99.90;;;;;;4974147;28;20709;-72
2021/03/04 14:14:17;;;;;;;45.47;10.53;;;7.00;99.90;;;;;;4974868;28;20257;-73
2021/03/04 14:16:44;;;;;;;53.60;11.60;;;7.00;99.90;;;;;;4974910;28;20204;-73
2021/03/04 14:19:11;;;;;;;62.87;12.93;;;7.00;99.90;;;;;;4975001;28;20294;-74
2021/03/04 14:21:37;;;;;;;72.60;15.73;;;6.90;99.90;;;;;;4974915;28;20217;-75
2021/03/04 14:24:04;;;;;;;69.70;15.17;;;6.90;99.90;;;;;;4974874;28;20221;-76
2021/03/04 14:26:32;;;;;;;66.47;15.63;;;6.90;99.90;;;;;;4974233;28;20211;-73
2021/03/04 14:28:58;;;;;;;66.03;14.93;;;6.90;99.90;;;;;;4974196;28;20573;-72
2021/03/04 14:31:24;;;;;;;71.73;15.57;;;6.80;99.90;;;;;;4974858;28;20250;-70
2021/03/04 14:33:51;;;;;;;54.77;14.70;;;6.90;99.90;;;;;;4974552;28;20216;-72
2021/03/04 14:36:18;;;;;;;65.83;14.50;;;6.80;99.90;;;;;;4974714;28;20218;-72
2021/03/04 14:38:44;;;;;;;66.30;13.67;;;6.80;99.90;;;;;;4974939;28;20235;-81
2021/03/04 14:41:11;;;;;;;67.20;14.80;;;6.90;99.90;;;;;;4974635;28;20242;-80
2021/03/04 14:43:37;;;;;;;69.37;15.67;;;6.80;99.90;;;;;;4973808;28;20207;-73
2021/03/04 14:46:03;;;;;;;64.07;15.10;;;6.80;99.90;;;;;;4974237;28;20680;-76
2021/03/04 14:48:30;;;;;;;69.93;14.97;;;6.90;99.90;;;;;;4973864;28;20227;-73
2021/03/04 14:50:56;;;;;;;57.00;15.80;;;7.00;99.90;;;;;;4973963;28;20241;-71
2021/03/04 14:53:23;;;;;;;59.30;14.47;;;7.00;99.90;;;;;;4974152;28;20547;-73
2021/03/04 14:55:49;;;;;;;62.97;15.07;;;7.00;99.90;;;;;;4974258;28;20207;-72
2021/03/04 14:58:18;;;;;;;60.47;16.47;;;7.00;99.90;;;;;;4973880;28;20282;-72
2021/03/04 15:00:45;;;;;;;58.27;14.97;;;7.00;99.90;;;;;;4973555;28;20214;-75
2021/03/04 15:03:11;;;;;;;64.63;15.37;;;6.90;99.90;;;;;;4974059;28;20219;-73
2021/03/04 15:05:38;;;;;;;53.07;12.80;;;7.00;99.90;;;;;;4974289;28;20761;-72
2021/03/04 15:08:05;;;;;;;57.90;14.63;;;6.90;99.90;;;;;;4974131;28;20270;-72
2021/03/04 15:10:32;;;;;;;62.53;15.10;;;6.90;99.90;;;;;;4973599;28;20294;-74
2021/03/04 15:12:58;;;;;;;67.23;15.00;;;6.80;99.90;;;;;;4974037;28;20203;-72
2021/03/04 15:15:25;;;;;;;65.03;15.90;;;6.80;99.90;;;;;;4973859;28;20211;-71
2021/03/04 15:17:51;;;;;;;62.30;14.57;;;6.80;99.90;;;;;;4974080;28;20231;-74
2021/03/04 15:20:18;;;;;;;59.77;15.97;;;6.80;99.90;;;;;;4973743;28;20214;-73
2021/03/04 15:22:44;;;;;;;71.93;17.93;;;6.80;99.90;;;;;;4974738;28;20215;-74
2021/03/04 15:25:12;;;;;;;67.60;15.70;;;6.80;99.90;;;;;;4975224;28;20219;-73
2021/03/04 15:27:39;;;;;;;77.17;16.50;;;6.70;99.90;;;;;;4974506;28;20231;-73
2021/03/04 15:30:06;;;;;;;75.40;16.63;;;6.70;99.90;;;;;;4974729;28;20211;-75
2021/03/04 15:32:33;;;;;;;72.07;16.17;;;6.70;99.90;;;;;;4974368;28;20720;-73
2021/03/04 15:34:59;;;;;;;72.40;16.13;;;6.70;99.90;;;;;;4974479;28;20658;-76
2021/03/04 15:37:25;;;;;;;71.47;16.53;;;6.60;99.90;;;;;;4974437;28;20231;-72
2021/03/04 15:39:52;;;;;;;64.57;15.20;;;6.60;99.90;;;;;;4974845;28;20214;-73
2021/03/04 15:42:19;;;;;;;64.07;14.73;;;6.70;99.90;;;;;;4974658;28;20238;-73
2021/03/04 15:44:46;;;;;;;60.40;13.23;;;6.60;99.90;;;;;;4974560;28;20243;-77
2021/03/04 15:47:12;;;;;;;51.50;12.60;;;6.60;99.90;;;;;;4974414;28;20277;-70
2021/03/04 15:49:38;;;;;;;50.77;12.10;;;6.60;99.90;;;;;;4974318;28;20211;-76
2021/03/04 15:52:05;;;;;;;50.53;12.17;;;6.60;99.90;;;;;;4974194;28;20242;-76
2021/03/04 15:54:31;;;;;;;47.83;11.53;;;6.60;99.90;;;;;;4973855;28;20210;-73
2021/03/04 15:56:58;;;;;;;47.77;10.67;;;6.50;99.90;;;;;;4974145;28;20235;-70
2021/03/04 15:59:24;;;;;;;56.33;10.23;;;6.40;99.90;;;;;;4971257;28;20207;-70
2021/03/04 16:01:51;;;;;;;49.27;10.47;;;6.40;99.90;;;;;;4973068;28;20238;-73
2021/03/04 16:04:17;;;;;;;40.70;10.40;;;6.20;99.90;;;;;;4974160;28;20207;-71
2021/03/04 16:06:44;;;;;;;44.30;10.17;;;6.20;99.90;;;;;;4974598;28;20674;-71
2021/03/04 16:09:10;;;;;;;43.67;9.53;;;6.10;99.90;;;;;;4974079;28;20207;-71
2021/03/04 16:11:36;;;;;;;40.47;10.60;;;6.00;99.90;;;;;;4974211;28;20666;-76
2021/03/04 16:14:03;;;;;;;45.00;10.43;;;6.00;99.90;;;;;;4974233;28;20213;-71
2021/03/04 16:16:29;;;;;;;45.00;10.73;;;6.00;99.90;;;;;;4974138;28;20215;-72
2021/03/04 16:18:56;;;;;;;42.73;9.53;;;6.00;99.90;;;;;;4974128;28;20551;-71
2021/03/04 16:21:22;;;;;;;37.33;9.13;;;6.10;99.90;;;;;;4974555;28;20214;-71
2021/03/04 16:23:49;;;;;;;50.53;9.70;;;6.10;99.90;;;;;;4974063;28;20207;-71
2021/03/04 16:26:15;;;;;;;40.40;9.27;;;6.20;99.90;;;;;;4973912;28;20215;-72
2021/03/04 16:28:41;;;;;;;39.13;9.67;;;6.20;99.90;;;;;;4974155;28;20585;-71
2021/03/04 16:31:08;;;;;;;39.33;9.67;;;6.30;99.90;;;;;;4974138;28;20241;-76
2021/03/04 16:33:34;;;;;;;52.60;10.83;;;6.40;99.90;;;;;;4974079;28;20211;-71
2021/03/04 16:36:01;;;;;;;47.77;10.03;;;6.40;99.90;;;;;;4974005;28;20211;-71
2021/03/04 16:38:27;;;;;;;38.97;9.47;;;6.50;99.90;;;;;;4974215;28;20294;-72
2021/03/04 16:40:54;;;;;;;38.23;10.90;;;6.50;99.90;;;;;;4974090;28;20207;-72
2021/03/04 16:43:20;;;;;;;35.73;10.23;;;6.50;99.90;;;;;;4973915;28;20203;-72
2021/03/04 16:45:46;;;;;;;43.07;9.57;;;6.50;99.90;;;;;;4973752;28;20265;-71
2021/03/04 16:48:13;;;;;;;36.80;8.87;;;6.50;99.90;;;;;;4974142;28;20698;-71
2021/03/04 16:50:39;;;;;;;35.73;8.63;;;6.30;99.90;;;;;;4974037;28;20231;-72
2021/03/04 16:53:06;;;;;;;36.87;8.83;;;6.20;99.90;;;;;;4973595;28;20215;-72
2021/03/04 16:55:33;;;;;;;38.60;9.93;;;6.20;99.90;;;;;;4973786;28;20285;-71
2021/03/04 16:57:59;;;;;;;35.17;9.30;;;6.20;99.90;;;;;;4973453;28;20227;-71
2021/03/04 17:00:25;;;;;;;41.00;9.27;;;6.10;99.90;;;;;;4973686;28;20211;-71
2021/03/04 17:02:52;;;;;;;35.07;9.03;;;6.10;99.90;;;;;;4973903;28;20211;-71
2021/03/04 17:05:19;;;;;;;35.27;9.33;;;6.10;99.90;;;;;;4973906;28;20211;-72
2021/03/04 17:07:45;;;;;;;45.43;8.67;;;6.10;99.90;;;;;;4977291;28;20266;-71
2021/03/04 17:10:15;;;;;;;33.57;9.13;;;6.00;99.90;;;;;;4977804;28;20230;-76
2021/03/04 17:12:41;;;;;;;30.47;8.13;;;6.10;99.90;;;;;;4977077;28;20274;-72
2021/03/04 17:15:08;;;;;;;35.77;9.60;;;6.10;99.90;;;;;;4977037;28;20216;-73
2021/03/04 17:17:35;;;;;;;35.13;9.17;;;6.10;99.90;;;;;;4977266;28;20239;-73
2021/03/04 17:20:01;;;;;;;27.73;7.93;;;6.20;99.90;;;;;;4977461;28;20208;-77
2021/03/04 17:22:27;;;;;;;26.70;8.60;;;6.30;99.90;;;;;;4977256;28;20215;-77
2021/03/04 17:24:53;;;;;;;30.60;7.30;;;6.20;99.90;;;;;;4977195;28;20262;-73
2021/03/04 17:27:20;;;;;;;22.27;7.37;;;6.10;99.90;;;;;;4976732;28;20238;-74
2021/03/04 17:29:47;;;;;;;26.83;7.30;;;6.10;99.90;;;;;;4976817;28;20238;-74
2021/03/04 17:32:13;;;;;;;21.20;7.43;;;6.10;99.90;;;;;;4977049;28;20235;-75
2021/03/04 17:34:39;;;;;;;25.13;6.77;;;6.10;99.90;;;;;;4977263;28;20214;-72
2021/03/04 17:37:06;;;;;;;28.07;7.67;;;6.10;99.90;;;;;;4976806;28;20702;-76
2021/03/04 17:39:32;;;;;;;17.77;6.20;;;6.10;99.90;;;;;;4976901;28;20211;-71
2021/03/04 17:41:58;;;;;;;29.47;7.57;;;6.10;99.90;;;;;;4976823;28;20211;-72
2021/03/04 17:44:25;;;;;;;27.53;6.50;;;6.10;99.90;;;;;;4976503;28;20315;-73
2021/03/04 17:46:52;;;;;;;24.47;7.63;;;6.00;99.90;;;;;;4976721;28;20232;-71
2021/03/04 17:49:18;;;;;;;22.60;6.17;;;6.10;99.90;;;;;;4976348;28;20674;-73
2021/03/04 17:51:44;;;;;;;25.90;7.63;;;6.10;99.90;;;;;;4976241;28;20235;-72
2021/03/04 17:54:10;;;;;;;17.40;6.13;;;6.10;99.90;;;;;;4976366;28;20211;-72
2021/03/04 17:56:37;;;;;;;20.80;6.80;;;6.20;99.90;;;;;;4976196;28;20210;-71
2021/03/04 17:59:04;;;;;;;18.47;6.27;;;6.30;99.90;;;;;;4976394;28;20211;-72
2021/03/04 18:01:31;;;;;;;19.33;7.47;;;6.30;99.90;;;;;;4976735;28;20211;-71
2021/03/04 18:03:58;;;;;;;19.90;6.90;;;6.30;99.90;;;;;;4976678;28;20211;-72
2021/03/04 18:06:25;;;;;;;23.23;6.87;;;6.40;99.90;;;;;;4976769;28;20277;-71
2021/03/04 18:08:52;;;;;;;21.53;6.40;;;6.40;99.90;;;;;;4976074;28;20227;-72
2021/03/04 18:11:18;;;;;;;22.27;7.07;;;6.50;99.90;;;;;;4976137;28;20270;-74
2021/03/04 18:13:44;;;;;;;19.63;6.90;;;6.50;99.90;;;;;;4976693;28;20210;-72
2021/03/04 18:16:11;;;;;;;22.03;6.40;;;6.50;99.90;;;;;;4976747;28;20211;-74
2021/03/04 18:18:38;;;;;;;23.70;6.77;;;6.60;99.90;;;;;;4975532;28;20227;-76
2021/03/04 18:21:05;;;;;;;19.23;6.43;;;6.70;99.90;;;;;;4976651;28;20570;-73
2021/03/04 18:23:32;;;;;;;21.13;7.00;;;6.70;99.90;;;;;;4977069;28;20266;-73
2021/03/04 18:25:58;;;;;;;23.80;7.33;;;6.70;99.90;;;;;;4976292;28;20207;-73
2021/03/04 18:28:24;;;;;;;18.53;6.97;;;6.70;99.90;;;;;;4976559;28;20231;-76
2021/03/04 18:30:51;;;;;;;24.30;7.17;;;6.70;99.90;;;;;;4976263;28;20235;-76
2021/03/04 18:33:17;;;;;;;19.50;7.33;;;6.70;99.90;;;;;;4976191;28;20203;-75
2021/03/04 18:35:44;;;;;;;23.13;9.47;;;6.70;99.90;;;;;;4976285;28;20214;-73
2021/03/04 18:38:10;;;;;;;24.53;10.83;;;6.70;99.90;;;;;;4975843;28;20710;-76
2021/03/04 18:40:37;;;;;;;16.67;6.70;;;6.70;99.90;;;;;;4975631;28;20693;-75
2021/03/04 18:43:04;;;;;;;18.33;7.60;;;6.80;99.90;;;;;;4975985;28;20207;-73
2021/03/04 18:45:30;;;;;;;18.90;6.33;;;6.80;99.90;;;;;;4976034;28;20211;-76
2021/03/04 18:47:56;;;;;;;19.17;6.80;;;6.80;99.90;;;;;;4975882;28;20231;-73
2021/03/04 18:50:23;;;;;;;20.97;7.43;;;6.80;99.90;;;;;;4975819;28;20212;-77
2021/03/04 18:52:50;;;;;;;20.90;7.07;;;6.80;99.90;;;;;;4975600;28;20266;-73
2021/03/04 18:55:16;;;;;;;24.13;8.57;;;6.70;99.90;;;;;;4975602;28;20270;-77
2021/03/04 18:57:42;;;;;;;26.77;9.80;;;6.70;99.90;;;;;;4975475;28;20235;-73
2021/03/04 19:00:11;;;;;;;21.00;7.50;;;6.70;99.90;;;;;;4975309;28;20665;-73
2021/03/04 19:02:38;;;;;;;24.10;8.90;;;6.60;99.90;;;;;;4975471;28;20211;-72
2021/03/04 19:05:06;;;;;;;26.67;10.13;;;6.60;99.90;;;;;;4975132;28;20207;-76
2021/03/04 19:07:32;;;;;;;27.03;9.77;;;6.50;99.90;;;;;;4975101;28;20232;-72
2021/03/04 19:09:59;;;;;;;25.23;9.90;;;6.50;99.90;;;;;;4975076;28;20266;-73
2021/03/04 19:12:25;;;;;;;24.37;8.30;;;6.60;99.90;;;;;;4975056;28;20242;-74
2021/03/04 19:14:52;;;;;;;21.80;8.87;;;6.60;99.90;;;;;;4975279;28;20269;-73
2021/03/04 19:17:18;;;;;;;23.43;9.77;;;6.60;99.90;;;;;;4970635;28;20223;-79
2021/03/04 19:19:45;;;;;;;23.63;8.30;;;6.60;99.90;;;;;;4975496;28;20207;-79
2021/03/04 19:22:12;;;;;;;24.93;9.77;;;6.60;99.90;;;;;;4975347;28;20385;-77
2021/03/04 19:24:38;;;;;;;23.77;9.37;;;6.60;99.90;;;;;;4975026;28;20258;-78
2021/03/04 19:27:07;;;;;;;20.40;8.73;;;6.60;99.90;;;;;;4974725;28;20570;-79
2021/03/04 19:29:34;;;;;;;21.40;9.37;;;6.60;99.90;;;;;;4974690;28;20251;-78
2021/03/04 19:32:00;;;;;;;17.93;8.17;;;6.40;99.90;;;;;;4974973;28;20239;-77
2021/03/04 19:34:26;;;;;;;17.17;7.30;;;6.30;99.90;;;;;;4974779;28;20210;-78
2021/03/04 19:36:52;;;;;;;15.57;7.37;;;6.30;99.90;;;;;;4974132;28;20231;-78
2021/03/04 19:39:18;;;;;;;21.23;8.33;;;6.40;99.90;;;;;;4974579;28;20303;-78
2021/03/04 19:41:45;;;;;;;17.03;8.20;;;6.40;99.90;;;;;;4974349;28;20218;-82
2021/03/04 19:44:12;;;;;;;14.47;7.43;;;6.50;99.90;;;;;;4974763;28;20555;-80
2021/03/04 19:46:38;;;;;;;18.10;7.50;;;6.40;99.90;;;;;;4974188;28;20258;-82
2021/03/04 19:49:04;;;;;;;15.73;7.53;;;6.30;99.90;;;;;;4975451;28;20211;-73
2021/03/04 19:51:31;;;;;;;14.03;6.23;;;6.30;99.90;;;;;;4971934;28;20238;-74
2021/03/04 19:53:57;;;;;;;14.10;7.30;;;6.40;99.90;;;;;;4963879;28;20607;-74
2021/03/04 19:56:23;;;;;;;15.20;7.30;;;6.30;99.90;;;;;;4963484;28;20292;-76
2021/03/04 19:58:50;;;;;;;15.73;7.23;;;6.40;99.90;;;;;;4971911;28;20231;-74
2021/03/04 20:01:17;;;;;;;14.20;6.77;;;6.40;99.90;;;;;;4972664;28;20273;-72
2021/03/04 20:03:44;;;;;;;16.50;7.50;;;6.50;99.90;;;;;;4974524;28;20222;-75
2021/03/04 20:06:10;;;;;;;14.53;7.33;;;6.40;99.90;;;;;;4974392;28;20315;-72
2021/03/04 20:08:36;;;;;;;17.53;7.27;;;6.30;99.90;;;;;;4974546;28;20227;-75
2021/03/04 20:11:03;;;;;;;16.60;7.63;;;6.30;99.90;;;;;;4974463;28;20289;-76
2021/03/04 20:13:29;;;;;;;15.27;7.30;;;6.30;99.90;;;;;;4974570;28;20261;-75
2021/03/04 20:15:55;;;;;;;14.90;6.73;;;6.30;99.90;;;;;;4974212;28;20207;-76
2021/03/04 20:18:23;;;;;;;15.33;6.40;;;6.30;99.90;;;;;;4974242;28;20242;-71
2021/03/04 20:20:49;;;;;;;14.47;6.60;;;6.30;99.90;;;;;;4983266;28;20206;-70
2021/03/04 20:23:15;;;;;;;14.87;6.50;;;6.30;99.90;;;;;;4982696;28;20670;-72
2021/03/04 20:25:41;;;;;;;13.77;6.60;;;6.30;99.90;;;;;;4973910;28;20562;-75
2021/03/04 20:28:08;;;;;;;18.80;7.07;;;6.30;99.90;;;;;;4973608;28;20230;-76
2021/03/04 20:30:34;;;;;;;16.07;7.03;;;6.40;99.90;;;;;;4972848;28;20670;-75
2021/03/04 20:33:01;;;;;;;11.23;6.37;;;6.40;99.90;;;;;;4973497;28;20293;-75
2021/03/04 20:35:28;;;;;;;12.20;6.53;;;6.40;99.90;;;;;;4974299;28;20215;-74
2021/03/04 20:37:54;;;;;;;12.60;6.00;;;6.50;99.90;;;;;;4973931;28;20220;-74
2021/03/04 20:40:21;;;;;;;13.47;6.00;;;6.50;99.90;;;;;;4974634;28;20207;-75
2021/03/04 20:42:47;;;;;;;10.07;5.93;;;6.60;99.90;;;;;;4977530;28;20211;-73
2021/03/04 20:45:18;;;;;;;11.13;5.87;;;6.70;99.90;;;;;;4978671;28;20226;-77
2021/03/04 20:47:44;;;;;;;13.27;6.33;;;6.70;99.90;;;;;;4978827;28;20226;-70
2021/03/04 20:50:11;;;;;;;10.37;5.53;;;6.60;99.90;;;;;;4977721;28;20223;-70
2021/03/04 20:52:38;;;;;;;15.70;5.53;;;6.70;99.90;;;;;;4964909;28;20242;-72
2021/03/04 20:55:06;;;;;;;12.97;5.67;;;6.70;99.90;;;;;;4957872;29;20212;-72
2021/03/04 20:57:33;;;;;;;14.30;6.23;;;6.80;99.90;;;;;;4957513;28;20231;-71
2021/03/04 20:59:59;;;;;;;16.40;5.50;;;6.90;99.90;;;;;;4957621;29;20259;-72
2021/03/04 21:02:25;;;;;;;10.73;4.80;;;6.90;99.90;;;;;;4958084;29;20584;-71
2021/03/04 21:04:52;;;;;;;11.57;4.40;;;7.00;99.90;;;;;;4959166;29;20216;-75
2021/03/04 21:07:18;;;;;;;8.60;4.10;;;6.90;99.90;;;;;;4958988;28;20255;-73
2021/03/04 21:09:45;;;;;;;7.70;3.50;;;6.80;99.90;;;;;;4958427;29;20216;-71
2021/03/04 21:12:12;;;;;;;8.37;3.93;;;6.60;99.90;;;;;;4957864;29;20781;-70
2021/03/04 21:14:38;;;;;;;7.83;3.07;;;6.50;99.90;;;;;;4957849;29;20204;-74
2021/03/04 21:17:04;;;;;;;6.20;2.47;;;6.30;99.90;;;;;;4957388;28;20228;-71
2021/03/04 21:19:31;;;;;;;7.23;2.87;;;6.30;99.90;;;;;;4990194;28;20210;-72
2021/03/04 21:21:57;;;;;;;8.40;2.57;;;6.20;99.90;;;;;;4957590;29;20208;-71
2021/03/04 21:24:27;;;;;;;8.03;2.77;;;6.30;99.90;;;;;;4956904;29;20208;-70
2021/03/04 21:26:54;;;;;;;4.73;2.30;;;6.10;99.90;;;;;;4956831;28;20232;-70
2021/03/04 21:29:20;;;;;;;6.17;2.33;;;6.10;99.90;;;;;;4958018;29;20207;-69
2021/03/04 21:31:47;;;;;;;6.10;2.20;;;6.10;99.90;;;;;;4957462;29;20236;-69
2021/03/04 21:34:13;;;;;;;4.60;2.20;;;6.20;99.90;;;;;;4958257;29;20208;-69
2021/03/04 21:36:40;;;;;;;5.40;2.27;;;6.20;99.90;;;;;;4957724;28;20227;-69
2021/03/04 21:39:06;;;;;;;8.43;2.70;;;6.20;99.90;;;;;;4957275;29;20686;-69
2021/03/04 21:41:32;;;;;;;8.27;2.37;;;6.20;99.90;;;;;;4957448;29;20204;-69
2021/03/04 21:44:00;;;;;;;4.77;1.90;;;6.20;99.90;;;;;;4958548;29;20208;-70
2021/03/04 21:46:26;;;;;;;3.13;1.90;;;6.20;99.90;;;;;;4958708;29;20212;-69
2021/03/04 21:48:53;;;;;;;8.80;2.10;;;6.10;99.90;;;;;;4958659;28;20279;-70
2021/03/04 21:51:21;;;;;;;7.07;1.80;;;6.10;99.90;;;;;;4957880;28;20232;-69
2021/03/04 21:53:48;;;;;;;5.53;2.00;;;6.10;99.90;;;;;;4958880;29;20215;-71